sensor_id;sensor_type;location;lat;lon;timestamp;P1;durP1;ratioP1;P2;durP2;ratioP2
80392;SDS011;69719;45.544;10.218;2023-05-07T00:00:17;21.83;;;14.32;;
80392;SDS011;69719;45.544;10.218;2023-05-07T00:02:44;24.33;;;16.80;;
80392;SDS011;69719;45.544;10.218;2023-05-07T00:05:10;25.00;;;17.27;;
80392;SDS011;69719;45.544;10.218;2023-05-07T00:07:36;22.90;;;16.08;;
80392;SDS011;69719;45.544;10.218;2023-05-07T00:10:02;21.15;;;15.50;;
80392;SDS011;69719;45.544;10.218;2023-05-07T00:12:28;19.60;;;15.32;;
80392;SDS011;69719;45.544;10.218;2023-05-07T00:14:56;27.17;;;17.85;;
80392;SDS011;69719;45.544;10.218;2023-05-07T00:17:22;19.92;;;14.75;;
80392;SDS011;69719;45.544;10.218;2023-05-07T00:19:48;22.15;;;15.50;;
80392;SDS011;69719;45.544;10.218;2023-05-07T00:22:13;23.58;;;15.35;;
80392;SDS011;69719;45.544;10.218;2023-05-07T00:24:39;19.95;;;14.93;;
80392;SDS011;69719;45.544;10.218;2023-05-07T00:27:04;21.48;;;15.27;;
80392;SDS011;69719;45.544;10.218;2023-05-07T00:29:30;22.90;;;15.48;;
80392;SDS011;69719;45.544;10.218;2023-05-07T00:31:56;26.85;;;17.08;;
80392;SDS011;69719;45.544;10.218;2023-05-07T00:34:21;23.52;;;17.65;;
80392;SDS011;69719;45.544;10.218;2023-05-07T00:36:47;24.42;;;16.67;;
80392;SDS011;69719;45.544;10.218;2023-05-07T00:39:13;22.77;;;15.75;;
80392;SDS011;69719;45.544;10.218;2023-05-07T00:41:38;22.60;;;16.10;;
80392;SDS011;69719;45.544;10.218;2023-05-07T00:44:04;22.55;;;16.73;;
80392;SDS011;69719;45.544;10.218;2023-05-07T00:46:30;50.15;;;17.20;;
80392;SDS011;69719;45.544;10.218;2023-05-07T00:48:56;25.45;;;15.88;;
80392;SDS011;69719;45.544;10.218;2023-05-07T00:51:23;29.02;;;16.83;;
80392;SDS011;69719;45.544;10.218;2023-05-07T00:53:50;26.23;;;14.88;;
80392;SDS011;69719;45.544;10.218;2023-05-07T00:56:15;23.90;;;16.15;;
80392;SDS011;69719;45.544;10.218;2023-05-07T00:58:41;102.18;;;23.25;;
80392;SDS011;69719;45.544;10.218;2023-05-07T01:01:07;34.85;;;16.05;;
80392;SDS011;69719;45.544;10.218;2023-05-07T01:03:32;23.20;;;15.15;;
80392;SDS011;69719;45.544;10.218;2023-05-07T01:05:58;22.60;;;15.68;;
80392;SDS011;69719;45.544;10.218;2023-05-07T01:08:25;24.33;;;15.90;;
80392;SDS011;69719;45.544;10.218;2023-05-07T01:10:53;24.33;;;16.15;;
80392;SDS011;69719;45.544;10.218;2023-05-07T01:13:20;24.00;;;15.68;;
80392;SDS011;69719;45.544;10.218;2023-05-07T01:15:46;23.55;;;16.13;;
80392;SDS011;69719;45.544;10.218;2023-05-07T01:18:11;21.05;;;16.17;;
80392;SDS011;69719;45.544;10.218;2023-05-07T01:20:37;25.02;;;14.90;;
80392;SDS011;69719;45.544;10.218;2023-05-07T01:23:03;23.42;;;16.30;;
80392;SDS011;69719;45.544;10.218;2023-05-07T01:25:28;19.95;;;15.38;;
80392;SDS011;69719;45.544;10.218;2023-05-07T01:27:55;24.00;;;14.95;;
80392;SDS011;69719;45.544;10.218;2023-05-07T01:30:21;25.20;;;16.23;;
80392;SDS011;69719;45.544;10.218;2023-05-07T01:32:57;26.77;;;16.48;;
80392;SDS011;69719;45.544;10.218;2023-05-07T01:35:24;26.98;;;15.38;;
80392;SDS011;69719;45.544;10.218;2023-05-07T01:37:54;34.15;;;18.15;;
80392;SDS011;69719;45.544;10.218;2023-05-07T01:40:19;29.60;;;16.77;;
80392;SDS011;69719;45.544;10.218;2023-05-07T01:42:46;26.05;;;17.08;;
80392;SDS011;69719;45.544;10.218;2023-05-07T01:45:13;24.65;;;15.73;;
80392;SDS011;69719;45.544;10.218;2023-05-07T01:47:39;27.92;;;16.50;;
80392;SDS011;69719;45.544;10.218;2023-05-07T01:50:08;21.02;;;15.70;;
80392;SDS011;69719;45.544;10.218;2023-05-07T01:52:35;20.08;;;14.57;;
80392;SDS011;69719;45.544;10.218;2023-05-07T01:55:02;28.42;;;16.80;;
80392;SDS011;69719;45.544;10.218;2023-05-07T01:57:28;35.72;;;16.95;;
80392;SDS011;69719;45.544;10.218;2023-05-07T01:59:53;25.63;;;17.20;;
80392;SDS011;69719;45.544;10.218;2023-05-07T02:02:19;21.67;;;16.23;;
80392;SDS011;69719;45.544;10.218;2023-05-07T02:04:45;35.92;;;19.48;;
80392;SDS011;69719;45.544;10.218;2023-05-07T02:07:10;37.30;;;18.15;;
80392;SDS011;69719;45.544;10.218;2023-05-07T02:09:36;30.90;;;17.40;;
80392;SDS011;69719;45.544;10.218;2023-05-07T02:12:01;23.17;;;15.18;;
80392;SDS011;69719;45.544;10.218;2023-05-07T02:14:27;23.58;;;16.20;;
80392;SDS011;69719;45.544;10.218;2023-05-07T02:16:52;19.83;;;14.27;;
80392;SDS011;69719;45.544;10.218;2023-05-07T02:19:18;21.38;;;15.32;;
80392;SDS011;69719;45.544;10.218;2023-05-07T02:21:46;22.60;;;15.43;;
80392;SDS011;69719;45.544;10.218;2023-05-07T02:24:11;21.98;;;14.73;;
80392;SDS011;69719;45.544;10.218;2023-05-07T02:26:37;23.35;;;17.15;;
80392;SDS011;69719;45.544;10.218;2023-05-07T02:29:02;24.08;;;15.55;;
80392;SDS011;69719;45.544;10.218;2023-05-07T02:31:28;24.40;;;16.33;;
80392;SDS011;69719;45.544;10.218;2023-05-07T02:33:53;22.40;;;15.77;;
80392;SDS011;69719;45.544;10.218;2023-05-07T02:36:19;24.17;;;15.60;;
80392;SDS011;69719;45.544;10.218;2023-05-07T02:38:44;22.48;;;16.25;;
80392;SDS011;69719;45.544;10.218;2023-05-07T02:41:10;20.58;;;14.60;;
80392;SDS011;69719;45.544;10.218;2023-05-07T02:43:35;21.23;;;14.75;;
80392;SDS011;69719;45.544;10.218;2023-05-07T02:46:02;21.13;;;15.05;;
80392;SDS011;69719;45.544;10.218;2023-05-07T02:48:31;21.95;;;15.38;;
80392;SDS011;69719;45.544;10.218;2023-05-07T02:50:57;23.17;;;15.70;;
80392;SDS011;69719;45.544;10.218;2023-05-07T02:53:24;18.65;;;14.48;;
80392;SDS011;69719;45.544;10.218;2023-05-07T02:55:55;22.80;;;15.45;;
80392;SDS011;69719;45.544;10.218;2023-05-07T02:58:21;21.90;;;16.17;;
80392;SDS011;69719;45.544;10.218;2023-05-07T03:00:47;22.52;;;15.98;;
80392;SDS011;69719;45.544;10.218;2023-05-07T03:03:13;18.40;;;14.00;;
80392;SDS011;69719;45.544;10.218;2023-05-07T03:05:39;22.73;;;14.52;;
80392;SDS011;69719;45.544;10.218;2023-05-07T03:08:04;12.85;;;10.35;;
80392;SDS011;69719;45.544;10.218;2023-05-07T03:10:30;10.30;;;6.72;;
80392;SDS011;69719;45.544;10.218;2023-05-07T03:12:55;10.40;;;6.38;;
80392;SDS011;69719;45.544;10.218;2023-05-07T03:15:21;7.80;;;5.35;;
80392;SDS011;69719;45.544;10.218;2023-05-07T03:17:47;7.50;;;4.65;;
80392;SDS011;69719;45.544;10.218;2023-05-07T03:20:13;10.23;;;5.70;;
80392;SDS011;69719;45.544;10.218;2023-05-07T03:22:38;6.10;;;4.20;;
80392;SDS011;69719;45.544;10.218;2023-05-07T03:25:05;9.73;;;4.03;;
80392;SDS011;69719;45.544;10.218;2023-05-07T03:27:31;8.68;;;4.30;;
80392;SDS011;69719;45.544;10.218;2023-05-07T03:29:56;7.20;;;3.88;;
80392;SDS011;69719;45.544;10.218;2023-05-07T03:32:22;4.90;;;3.22;;
80392;SDS011;69719;45.544;10.218;2023-05-07T03:34:47;17.02;;;4.82;;
80392;SDS011;69719;45.544;10.218;2023-05-07T03:37:13;9.88;;;3.60;;
80392;SDS011;69719;45.544;10.218;2023-05-07T03:39:39;16.25;;;3.95;;
80392;SDS011;69719;45.544;10.218;2023-05-07T03:42:04;5.25;;;3.15;;
80392;SDS011;69719;45.544;10.218;2023-05-07T03:44:30;6.68;;;3.30;;
80392;SDS011;69719;45.544;10.218;2023-05-07T03:46:55;7.75;;;3.20;;
80392;SDS011;69719;45.544;10.218;2023-05-07T03:49:21;9.70;;;3.53;;
80392;SDS011;69719;45.544;10.218;2023-05-07T03:51:46;4.47;;;2.45;;
80392;SDS011;69719;45.544;10.218;2023-05-07T03:54:12;26.00;;;4.63;;
80392;SDS011;69719;45.544;10.218;2023-05-07T03:56:37;7.82;;;3.58;;
80392;SDS011;69719;45.544;10.218;2023-05-07T03:59:02;9.45;;;2.90;;
80392;SDS011;69719;45.544;10.218;2023-05-07T04:01:28;5.28;;;3.42;;
80392;SDS011;69719;45.544;10.218;2023-05-07T04:03:53;5.97;;;3.13;;
80392;SDS011;69719;45.544;10.218;2023-05-07T04:06:19;4.70;;;2.75;;
80392;SDS011;69719;45.544;10.218;2023-05-07T04:08:44;4.72;;;3.25;;
80392;SDS011;69719;45.544;10.218;2023-05-07T04:11:10;6.97;;;3.42;;
80392;SDS011;69719;45.544;10.218;2023-05-07T04:13:35;10.20;;;3.50;;
80392;SDS011;69719;45.544;10.218;2023-05-07T04:16:01;8.63;;;3.45;;
80392;SDS011;69719;45.544;10.218;2023-05-07T04:18:28;36.38;;;6.47;;
80392;SDS011;69719;45.544;10.218;2023-05-07T04:20:53;10.25;;;3.45;;
80392;SDS011;69719;45.544;10.218;2023-05-07T04:23:19;8.02;;;2.95;;
80392;SDS011;69719;45.544;10.218;2023-05-07T04:25:45;3.70;;;3.00;;
80392;SDS011;69719;45.544;10.218;2023-05-07T04:28:11;10.73;;;2.75;;
80392;SDS011;69719;45.544;10.218;2023-05-07T04:30:37;4.07;;;2.55;;
80392;SDS011;69719;45.544;10.218;2023-05-07T04:33:03;8.10;;;3.08;;
80392;SDS011;69719;45.544;10.218;2023-05-07T04:35:29;4.50;;;2.45;;
80392;SDS011;69719;45.544;10.218;2023-05-07T04:37:54;6.68;;;3.05;;
80392;SDS011;69719;45.544;10.218;2023-05-07T04:40:20;8.77;;;3.58;;
80392;SDS011;69719;45.544;10.218;2023-05-07T04:42:45;11.05;;;3.72;;
80392;SDS011;69719;45.544;10.218;2023-05-07T04:45:11;5.90;;;3.00;;
80392;SDS011;69719;45.544;10.218;2023-05-07T04:47:37;6.38;;;3.10;;
80392;SDS011;69719;45.544;10.218;2023-05-07T04:50:04;3.63;;;3.13;;
80392;SDS011;69719;45.544;10.218;2023-05-07T04:52:30;5.45;;;3.63;;
80392;SDS011;69719;45.544;10.218;2023-05-07T04:54:56;4.93;;;3.05;;
80392;SDS011;69719;45.544;10.218;2023-05-07T04:57:24;7.07;;;3.72;;
80392;SDS011;69719;45.544;10.218;2023-05-07T04:59:50;6.45;;;3.38;;
80392;SDS011;69719;45.544;10.218;2023-05-07T05:02:15;6.43;;;3.40;;
80392;SDS011;69719;45.544;10.218;2023-05-07T05:04:41;7.22;;;3.75;;
80392;SDS011;69719;45.544;10.218;2023-05-07T05:07:06;7.32;;;4.03;;
80392;SDS011;69719;45.544;10.218;2023-05-07T05:09:32;6.30;;;3.20;;
80392;SDS011;69719;45.544;10.218;2023-05-07T05:11:57;7.00;;;3.65;;
80392;SDS011;69719;45.544;10.218;2023-05-07T05:14:23;6.03;;;2.95;;
80392;SDS011;69719;45.544;10.218;2023-05-07T05:16:49;5.22;;;2.72;;
80392;SDS011;69719;45.544;10.218;2023-05-07T05:19:15;3.60;;;2.60;;
80392;SDS011;69719;45.544;10.218;2023-05-07T05:21:40;3.47;;;2.28;;
80392;SDS011;69719;45.544;10.218;2023-05-07T05:24:06;4.85;;;3.17;;
80392;SDS011;69719;45.544;10.218;2023-05-07T05:26:31;4.78;;;2.63;;
80392;SDS011;69719;45.544;10.218;2023-05-07T05:28:57;5.20;;;2.42;;
80392;SDS011;69719;45.544;10.218;2023-05-07T05:31:22;5.03;;;2.50;;
80392;SDS011;69719;45.544;10.218;2023-05-07T05:33:48;5.57;;;2.60;;
80392;SDS011;69719;45.544;10.218;2023-05-07T05:36:13;3.85;;;2.65;;
80392;SDS011;69719;45.544;10.218;2023-05-07T05:38:39;4.32;;;2.55;;
80392;SDS011;69719;45.544;10.218;2023-05-07T05:41:04;6.18;;;2.83;;
80392;SDS011;69719;45.544;10.218;2023-05-07T05:43:30;4.70;;;2.60;;
80392;SDS011;69719;45.544;10.218;2023-05-07T05:45:56;3.20;;;2.67;;
80392;SDS011;69719;45.544;10.218;2023-05-07T05:48:22;6.32;;;2.67;;
80392;SDS011;69719;45.544;10.218;2023-05-07T05:50:47;7.35;;;3.10;;
80392;SDS011;69719;45.544;10.218;2023-05-07T05:53:13;5.30;;;3.00;;
80392;SDS011;69719;45.544;10.218;2023-05-07T05:55:38;8.30;;;3.60;;
80392;SDS011;69719;45.544;10.218;2023-05-07T05:58:04;3.58;;;2.90;;
80392;SDS011;69719;45.544;10.218;2023-05-07T06:00:30;3.53;;;3.00;;
80392;SDS011;69719;45.544;10.218;2023-05-07T06:02:55;7.50;;;3.28;;
80392;SDS011;69719;45.544;10.218;2023-05-07T06:05:21;7.25;;;4.15;;
80392;SDS011;69719;45.544;10.218;2023-05-07T06:07:46;5.63;;;3.10;;
80392;SDS011;69719;45.544;10.218;2023-05-07T06:10:12;5.35;;;3.10;;
80392;SDS011;69719;45.544;10.218;2023-05-07T06:12:37;5.07;;;3.05;;
80392;SDS011;69719;45.544;10.218;2023-05-07T06:15:03;6.07;;;3.10;;
80392;SDS011;69719;45.544;10.218;2023-05-07T06:17:29;7.47;;;3.28;;
80392;SDS011;69719;45.544;10.218;2023-05-07T06:19:55;6.03;;;3.30;;
80392;SDS011;69719;45.544;10.218;2023-05-07T06:22:21;4.35;;;3.00;;
80392;SDS011;69719;45.544;10.218;2023-05-07T06:24:46;5.22;;;3.20;;
80392;SDS011;69719;45.544;10.218;2023-05-07T06:27:12;5.68;;;3.55;;
80392;SDS011;69719;45.544;10.218;2023-05-07T06:29:37;3.70;;;3.30;;
80392;SDS011;69719;45.544;10.218;2023-05-07T06:32:07;4.43;;;3.25;;
80392;SDS011;69719;45.544;10.218;2023-05-07T06:34:35;9.63;;;3.20;;
80392;SDS011;69719;45.544;10.218;2023-05-07T06:37:01;9.23;;;3.05;;
80392;SDS011;69719;45.544;10.218;2023-05-07T06:39:27;4.18;;;3.30;;
80392;SDS011;69719;45.544;10.218;2023-05-07T06:41:53;10.82;;;4.47;;
80392;SDS011;69719;45.544;10.218;2023-05-07T06:44:19;8.80;;;3.33;;
80392;SDS011;69719;45.544;10.218;2023-05-07T06:46:44;5.85;;;3.40;;
80392;SDS011;69719;45.544;10.218;2023-05-07T06:49:10;6.45;;;4.50;;
80392;SDS011;69719;45.544;10.218;2023-05-07T06:51:37;9.93;;;3.20;;
80392;SDS011;69719;45.544;10.218;2023-05-07T06:54:02;3.60;;;3.20;;
80392;SDS011;69719;45.544;10.218;2023-05-07T06:56:29;7.90;;;3.70;;
80392;SDS011;69719;45.544;10.218;2023-05-07T06:58:55;7.20;;;3.28;;
80392;SDS011;69719;45.544;10.218;2023-05-07T07:01:20;5.57;;;3.22;;
80392;SDS011;69719;45.544;10.218;2023-05-07T07:03:46;7.00;;;3.67;;
80392;SDS011;69719;45.544;10.218;2023-05-07T07:06:11;7.07;;;3.55;;
80392;SDS011;69719;45.544;10.218;2023-05-07T07:08:37;5.60;;;3.13;;
80392;SDS011;69719;45.544;10.218;2023-05-07T07:11:04;7.28;;;3.50;;
80392;SDS011;69719;45.544;10.218;2023-05-07T07:13:30;8.30;;;3.50;;
80392;SDS011;69719;45.544;10.218;2023-05-07T07:15:55;4.35;;;3.20;;
80392;SDS011;69719;45.544;10.218;2023-05-07T07:18:21;4.30;;;3.15;;
80392;SDS011;69719;45.544;10.218;2023-05-07T07:20:46;7.78;;;3.55;;
80392;SDS011;69719;45.544;10.218;2023-05-07T07:23:12;4.57;;;3.30;;
80392;SDS011;69719;45.544;10.218;2023-05-07T07:25:37;9.05;;;4.68;;
80392;SDS011;69719;45.544;10.218;2023-05-07T07:28:03;10.00;;;5.20;;
80392;SDS011;69719;45.544;10.218;2023-05-07T07:30:28;9.73;;;7.32;;
80392;SDS011;69719;45.544;10.218;2023-05-07T07:32:54;11.00;;;6.72;;
80392;SDS011;69719;45.544;10.218;2023-05-07T07:35:22;10.50;;;6.15;;
80392;SDS011;69719;45.544;10.218;2023-05-07T07:37:48;17.77;;;12.60;;
80392;SDS011;69719;45.544;10.218;2023-05-07T07:40:15;17.98;;;12.07;;
80392;SDS011;69719;45.544;10.218;2023-05-07T07:42:40;21.95;;;12.95;;
80392;SDS011;69719;45.544;10.218;2023-05-07T07:45:06;22.77;;;14.13;;
80392;SDS011;69719;45.544;10.218;2023-05-07T07:47:32;21.58;;;14.02;;
80392;SDS011;69719;45.544;10.218;2023-05-07T07:49:58;22.10;;;13.95;;
80392;SDS011;69719;45.544;10.218;2023-05-07T07:52:23;21.52;;;13.85;;
80392;SDS011;69719;45.544;10.218;2023-05-07T07:54:49;20.90;;;13.90;;
80392;SDS011;69719;45.544;10.218;2023-05-07T07:57:14;22.08;;;13.70;;
80392;SDS011;69719;45.544;10.218;2023-05-07T07:59:40;23.35;;;15.23;;
80392;SDS011;69719;45.544;10.218;2023-05-07T08:02:08;25.60;;;14.63;;
80392;SDS011;69719;45.544;10.218;2023-05-07T08:04:33;19.15;;;12.93;;
80392;SDS011;69719;45.544;10.218;2023-05-07T08:06:59;24.75;;;13.48;;
80392;SDS011;69719;45.544;10.218;2023-05-07T08:09:24;21.08;;;13.85;;
80392;SDS011;69719;45.544;10.218;2023-05-07T08:11:50;25.13;;;13.43;;
80392;SDS011;69719;45.544;10.218;2023-05-07T08:14:16;18.23;;;12.55;;
80392;SDS011;69719;45.544;10.218;2023-05-07T08:16:41;19.42;;;11.77;;
80392;SDS011;69719;45.544;10.218;2023-05-07T08:19:06;28.92;;;14.15;;
80392;SDS011;69719;45.544;10.218;2023-05-07T08:21:32;21.42;;;14.38;;
80392;SDS011;69719;45.544;10.218;2023-05-07T08:23:58;20.42;;;13.30;;
80392;SDS011;69719;45.544;10.218;2023-05-07T08:26:23;23.10;;;13.93;;
80392;SDS011;69719;45.544;10.218;2023-05-07T08:28:48;23.00;;;13.50;;
80392;SDS011;69719;45.544;10.218;2023-05-07T08:31:14;21.73;;;13.20;;
80392;SDS011;69719;45.544;10.218;2023-05-07T08:33:39;22.02;;;15.10;;
80392;SDS011;69719;45.544;10.218;2023-05-07T08:36:05;21.98;;;13.43;;
80392;SDS011;69719;45.544;10.218;2023-05-07T08:38:30;21.27;;;12.93;;
80392;SDS011;69719;45.544;10.218;2023-05-07T08:40:56;21.30;;;13.40;;
80392;SDS011;69719;45.544;10.218;2023-05-07T08:43:22;24.95;;;17.65;;
80392;SDS011;69719;45.544;10.218;2023-05-07T08:45:52;20.27;;;13.77;;
80392;SDS011;69719;45.544;10.218;2023-05-07T08:48:21;21.27;;;13.68;;
80392;SDS011;69719;45.544;10.218;2023-05-07T08:50:50;20.30;;;14.30;;
80392;SDS011;69719;45.544;10.218;2023-05-07T08:53:16;19.60;;;14.25;;
80392;SDS011;69719;45.544;10.218;2023-05-07T08:55:42;21.98;;;15.88;;
80392;SDS011;69719;45.544;10.218;2023-05-07T08:58:08;23.90;;;14.27;;
80392;SDS011;69719;45.544;10.218;2023-05-07T09:00:34;28.63;;;16.15;;
80392;SDS011;69719;45.544;10.218;2023-05-07T09:03:01;19.98;;;15.43;;
80392;SDS011;69719;45.544;10.218;2023-05-07T09:05:27;20.33;;;14.90;;
80392;SDS011;69719;45.544;10.218;2023-05-07T09:07:52;23.88;;;17.27;;
80392;SDS011;69719;45.544;10.218;2023-05-07T09:10:18;21.90;;;16.02;;
80392;SDS011;69719;45.544;10.218;2023-05-07T09:12:43;22.27;;;15.05;;
80392;SDS011;69719;45.544;10.218;2023-05-07T09:15:11;19.92;;;14.63;;
80392;SDS011;69719;45.544;10.218;2023-05-07T09:17:37;22.50;;;15.50;;
80392;SDS011;69719;45.544;10.218;2023-05-07T09:20:03;21.73;;;15.32;;
80392;SDS011;69719;45.544;10.218;2023-05-07T09:22:33;25.88;;;16.27;;
80392;SDS011;69719;45.544;10.218;2023-05-07T09:25:01;20.70;;;14.50;;
80392;SDS011;69719;45.544;10.218;2023-05-07T09:27:26;19.10;;;14.27;;
80392;SDS011;69719;45.544;10.218;2023-05-07T09:29:52;21.67;;;14.23;;
80392;SDS011;69719;45.544;10.218;2023-05-07T09:32:17;19.70;;;13.38;;
80392;SDS011;69719;45.544;10.218;2023-05-07T09:34:43;19.10;;;13.27;;
80392;SDS011;69719;45.544;10.218;2023-05-07T09:37:10;18.65;;;12.82;;
80392;SDS011;69719;45.544;10.218;2023-05-07T09:39:41;19.05;;;12.88;;
80392;SDS011;69719;45.544;10.218;2023-05-07T09:42:08;19.90;;;13.38;;
80392;SDS011;69719;45.544;10.218;2023-05-07T09:44:35;17.30;;;13.65;;
80392;SDS011;69719;45.544;10.218;2023-05-07T09:47:01;21.52;;;13.65;;
80392;SDS011;69719;45.544;10.218;2023-05-07T09:49:29;22.35;;;13.35;;
80392;SDS011;69719;45.544;10.218;2023-05-07T09:51:55;19.77;;;13.63;;
80392;SDS011;69719;45.544;10.218;2023-05-07T09:54:24;18.98;;;12.95;;
80392;SDS011;69719;45.544;10.218;2023-05-07T09:56:51;31.48;;;27.13;;
80392;SDS011;69719;45.544;10.218;2023-05-07T09:59:18;20.42;;;13.48;;
80392;SDS011;69719;45.544;10.218;2023-05-07T10:01:45;17.90;;;13.82;;
80392;SDS011;69719;45.544;10.218;2023-05-07T10:04:11;19.85;;;13.02;;
80392;SDS011;69719;45.544;10.218;2023-05-07T10:06:37;20.52;;;14.68;;
80392;SDS011;69719;45.544;10.218;2023-05-07T10:09:03;20.98;;;14.13;;
80392;SDS011;69719;45.544;10.218;2023-05-07T10:11:33;21.45;;;13.68;;
80392;SDS011;69719;45.544;10.218;2023-05-07T10:13:59;20.05;;;13.38;;
80392;SDS011;69719;45.544;10.218;2023-05-07T10:16:27;17.73;;;13.65;;
80392;SDS011;69719;45.544;10.218;2023-05-07T10:18:57;20.80;;;14.05;;
80392;SDS011;69719;45.544;10.218;2023-05-07T10:21:23;23.75;;;15.15;;
80392;SDS011;69719;45.544;10.218;2023-05-07T10:24:15;20.02;;;13.55;;
80392;SDS011;69719;45.544;10.218;2023-05-07T10:26:49;20.40;;;15.43;;
80392;SDS011;69719;45.544;10.218;2023-05-07T10:34:56;19.33;;;14.13;;
80392;SDS011;69719;45.544;10.218;2023-05-07T10:37:24;21.42;;;14.57;;
80392;SDS011;69719;45.544;10.218;2023-05-07T10:39:51;22.65;;;14.23;;
80392;SDS011;69719;45.544;10.218;2023-05-07T10:42:17;20.88;;;13.73;;
80392;SDS011;69719;45.544;10.218;2023-05-07T10:44:43;21.15;;;13.88;;
80392;SDS011;69719;45.544;10.218;2023-05-07T10:47:09;20.88;;;13.50;;
80392;SDS011;69719;45.544;10.218;2023-05-07T10:49:36;21.55;;;14.32;;
80392;SDS011;69719;45.544;10.218;2023-05-07T10:54:44;21.92;;;13.80;;
80392;SDS011;69719;45.544;10.218;2023-05-07T10:59:57;17.95;;;13.07;;
80392;SDS011;69719;45.544;10.218;2023-05-07T11:02:23;21.83;;;15.80;;
80392;SDS011;69719;45.544;10.218;2023-05-07T11:05:22;24.33;;;15.60;;
80392;SDS011;69719;45.544;10.218;2023-05-07T11:16:21;19.33;;;14.32;;
80392;SDS011;69719;45.544;10.218;2023-05-07T11:18:51;22.70;;;13.40;;
80392;SDS011;69719;45.544;10.218;2023-05-07T11:21:34;20.98;;;12.50;;
80392;SDS011;69719;45.544;10.218;2023-05-07T11:24:07;17.27;;;12.48;;
80392;SDS011;69719;45.544;10.218;2023-05-07T11:26:45;18.85;;;12.77;;
80392;SDS011;69719;45.544;10.218;2023-05-07T11:29:20;20.65;;;13.13;;
80392;SDS011;69719;45.544;10.218;2023-05-07T11:34:19;18.50;;;12.40;;
80392;SDS011;69719;45.544;10.218;2023-05-07T11:36:46;13.65;;;10.57;;
80392;SDS011;69719;45.544;10.218;2023-05-07T11:39:23;31.20;;;10.75;;
80392;SDS011;69719;45.544;10.218;2023-05-07T11:41:49;13.45;;;9.73;;
80392;SDS011;69719;45.544;10.218;2023-05-07T11:44:15;15.32;;;10.13;;
80392;SDS011;69719;45.544;10.218;2023-05-07T11:46:42;16.67;;;10.38;;
80392;SDS011;69719;45.544;10.218;2023-05-07T11:49:09;13.48;;;9.20;;
80392;SDS011;69719;45.544;10.218;2023-05-07T11:51:35;13.75;;;9.70;;
80392;SDS011;69719;45.544;10.218;2023-05-07T11:54:00;11.27;;;8.52;;
80392;SDS011;69719;45.544;10.218;2023-05-07T11:56:29;12.30;;;8.30;;
80392;SDS011;69719;45.544;10.218;2023-05-07T11:58:54;14.65;;;9.55;;
80392;SDS011;69719;45.544;10.218;2023-05-07T12:01:19;12.85;;;8.85;;
80392;SDS011;69719;45.544;10.218;2023-05-07T12:03:45;11.85;;;9.10;;
80392;SDS011;69719;45.544;10.218;2023-05-07T12:06:11;12.15;;;9.13;;
80392;SDS011;69719;45.544;10.218;2023-05-07T12:08:38;16.98;;;9.93;;
80392;SDS011;69719;45.544;10.218;2023-05-07T12:11:15;12.63;;;8.65;;
80392;SDS011;69719;45.544;10.218;2023-05-07T12:13:46;13.52;;;9.57;;
80392;SDS011;69719;45.544;10.218;2023-05-07T12:16:12;15.38;;;9.18;;
80392;SDS011;69719;45.544;10.218;2023-05-07T12:18:38;14.32;;;9.00;;
80392;SDS011;69719;45.544;10.218;2023-05-07T12:21:04;12.57;;;8.23;;
80392;SDS011;69719;45.544;10.218;2023-05-07T12:23:31;11.07;;;8.00;;
80392;SDS011;69719;45.544;10.218;2023-05-07T12:25:58;12.75;;;8.60;;
80392;SDS011;69719;45.544;10.218;2023-05-07T12:28:24;14.05;;;8.93;;
80392;SDS011;69719;45.544;10.218;2023-05-07T12:30:50;11.93;;;8.07;;
80392;SDS011;69719;45.544;10.218;2023-05-07T12:33:23;10.82;;;7.57;;
80392;SDS011;69719;45.544;10.218;2023-05-07T12:35:50;11.93;;;7.65;;
80392;SDS011;69719;45.544;10.218;2023-05-07T12:38:18;9.13;;;7.82;;
80392;SDS011;69719;45.544;10.218;2023-05-07T12:40:45;13.32;;;7.63;;
80392;SDS011;69719;45.544;10.218;2023-05-07T12:43:25;10.45;;;7.05;;
80392;SDS011;69719;45.544;10.218;2023-05-07T12:45:56;15.10;;;8.20;;
80392;SDS011;69719;45.544;10.218;2023-05-07T12:48:25;10.20;;;8.60;;
80392;SDS011;69719;45.544;10.218;2023-05-07T12:50:54;15.38;;;8.57;;
80392;SDS011;69719;45.544;10.218;2023-05-07T12:53:21;14.75;;;8.38;;
80392;SDS011;69719;45.544;10.218;2023-05-07T12:55:48;10.63;;;7.43;;
80392;SDS011;69719;45.544;10.218;2023-05-07T12:58:36;10.52;;;6.82;;
80392;SDS011;69719;45.544;10.218;2023-05-07T13:01:04;10.98;;;6.80;;
80392;SDS011;69719;45.544;10.218;2023-05-07T13:03:32;13.32;;;7.05;;
80392;SDS011;69719;45.544;10.218;2023-05-07T13:06:02;11.02;;;6.00;;
80392;SDS011;69719;45.544;10.218;2023-05-07T13:08:36;10.32;;;5.65;;
80392;SDS011;69719;45.544;10.218;2023-05-07T13:11:06;7.83;;;5.77;;
80392;SDS011;69719;45.544;10.218;2023-05-07T13:13:33;8.65;;;5.00;;
80392;SDS011;69719;45.544;10.218;2023-05-07T13:16:04;8.65;;;4.80;;
80392;SDS011;69719;45.544;10.218;2023-05-07T13:18:31;7.57;;;5.18;;
80392;SDS011;69719;45.544;10.218;2023-05-07T13:20:57;10.68;;;4.55;;
80392;SDS011;69719;45.544;10.218;2023-05-07T13:23:22;12.00;;;5.00;;
80392;SDS011;69719;45.544;10.218;2023-05-07T13:25:48;10.95;;;4.88;;
80392;SDS011;69719;45.544;10.218;2023-05-07T13:28:14;9.88;;;5.75;;
80392;SDS011;69719;45.544;10.218;2023-05-07T13:30:40;7.82;;;4.45;;
80392;SDS011;69719;45.544;10.218;2023-05-07T13:33:05;7.13;;;5.03;;
80392;SDS011;69719;45.544;10.218;2023-05-07T13:35:31;5.95;;;4.63;;
80392;SDS011;69719;45.544;10.218;2023-05-07T13:37:57;7.65;;;5.63;;
80392;SDS011;69719;45.544;10.218;2023-05-07T13:40:22;9.27;;;6.38;;
80392;SDS011;69719;45.544;10.218;2023-05-07T13:42:48;7.00;;;5.30;;
80392;SDS011;69719;45.544;10.218;2023-05-07T13:45:15;6.28;;;5.38;;
80392;SDS011;69719;45.544;10.218;2023-05-07T13:47:41;6.90;;;5.28;;
80392;SDS011;69719;45.544;10.218;2023-05-07T13:50:10;7.32;;;4.88;;
80392;SDS011;69719;45.544;10.218;2023-05-07T13:52:40;11.95;;;5.85;;
80392;SDS011;69719;45.544;10.218;2023-05-07T13:55:08;14.65;;;6.32;;
80392;SDS011;69719;45.544;10.218;2023-05-07T13:57:34;7.88;;;5.85;;
80392;SDS011;69719;45.544;10.218;2023-05-07T13:59:59;7.55;;;5.25;;
80392;SDS011;69719;45.544;10.218;2023-05-07T14:02:24;11.82;;;6.03;;
80392;SDS011;69719;45.544;10.218;2023-05-07T14:04:50;9.50;;;6.07;;
80392;SDS011;69719;45.544;10.218;2023-05-07T14:07:15;15.15;;;6.93;;
80392;SDS011;69719;45.544;10.218;2023-05-07T14:09:41;10.90;;;6.60;;
80392;SDS011;69719;45.544;10.218;2023-05-07T14:12:06;11.52;;;5.65;;
80392;SDS011;69719;45.544;10.218;2023-05-07T14:14:32;9.60;;;6.22;;
80392;SDS011;69719;45.544;10.218;2023-05-07T14:16:57;11.80;;;6.50;;
80392;SDS011;69719;45.544;10.218;2023-05-07T14:19:23;10.50;;;7.38;;
80392;SDS011;69719;45.544;10.218;2023-05-07T14:21:48;9.73;;;6.55;;
80392;SDS011;69719;45.544;10.218;2023-05-07T14:24:14;10.82;;;7.35;;
80392;SDS011;69719;45.544;10.218;2023-05-07T14:26:39;10.75;;;6.95;;
80392;SDS011;69719;45.544;10.218;2023-05-07T14:29:05;10.82;;;6.07;;
80392;SDS011;69719;45.544;10.218;2023-05-07T14:31:30;10.45;;;6.13;;
80392;SDS011;69719;45.544;10.218;2023-05-07T14:33:56;11.45;;;6.88;;
80392;SDS011;69719;45.544;10.218;2023-05-07T14:36:23;9.32;;;6.22;;